sensor_id;sensor_type;location;lat;lon;timestamp;temperature;humidity
10883;DHT22;5494;51.796;10.952;2023-04-25T00:00:45;8.00;99.90
10883;DHT22;5494;51.796;10.952;2023-04-25T00:03:13;7.90;99.90
10883;DHT22;5494;51.796;10.952;2023-04-25T00:05:41;7.90;99.90
10883;DHT22;5494;51.796;10.952;2023-04-25T00:08:10;7.80;99.90
10883;DHT22;5494;51.796;10.952;2023-04-25T00:10:39;7.70;99.90
10883;DHT22;5494;51.796;10.952;2023-04-25T00:13:07;7.80;99.90
10883;DHT22;5494;51.796;10.952;2023-04-25T00:15:36;7.80;99.90
10883;DHT22;5494;51.796;10.952;2023-04-25T00:18:05;7.70;99.90
10883;DHT22;5494;51.796;10.952;2023-04-25T00:20:33;7.60;99.90
10883;DHT22;5494;51.796;10.952;2023-04-25T00:23:02;7.50;99.90
10883;DHT22;5494;51.796;10.952;2023-04-25T00:25:31;7.50;99.90
10883;DHT22;5494;51.796;10.952;2023-04-25T00:27:59;7.40;99.90
10883;DHT22;5494;51.796;10.952;2023-04-25T00:30:26;7.40;99.90
10883;DHT22;5494;51.796;10.952;2023-04-25T00:55:26;6.90;99.90
10883;DHT22;5494;51.796;10.952;2023-04-25T00:58:14;7.10;99.90
10883;DHT22;5494;51.796;10.952;2023-04-25T01:01:02;7.10;99.90
10883;DHT22;5494;51.796;10.952;2023-04-25T01:03:51;7.10;99.90
10883;DHT22;5494;51.796;10.952;2023-04-25T01:06:42;7.00;99.90
10883;DHT22;5494;51.796;10.952;2023-04-25T01:09:30;7.00;99.90
10883;DHT22;5494;51.796;10.952;2023-04-25T01:12:20;7.00;99.90
10883;DHT22;5494;51.796;10.952;2023-04-25T01:15:09;7.00;99.90
10883;DHT22;5494;51.796;10.952;2023-04-25T01:17:58;6.90;99.90
10883;DHT22;5494;51.796;10.952;2023-04-25T01:20:50;6.90;99.90
10883;DHT22;5494;51.796;10.952;2023-04-25T01:23:42;6.90;99.90
10883;DHT22;5494;51.796;10.952;2023-04-25T01:26:31;6.90;99.90
10883;DHT22;5494;51.796;10.952;2023-04-25T01:29:20;6.90;99.90
10883;DHT22;5494;51.796;10.952;2023-04-25T01:32:08;8.60;99.90
10883;DHT22;5494;51.796;10.952;2023-04-25T01:34:58;7.10;99.90
10883;DHT22;5494;51.796;10.952;2023-04-25T01:37:47;7.10;99.90
10883;DHT22;5494;51.796;10.952;2023-04-25T01:40:39;7.20;99.90
10883;DHT22;5494;51.796;10.952;2023-04-25T01:43:28;7.10;99.90
10883;DHT22;5494;51.796;10.952;2023-04-25T01:46:17;7.10;99.90
10883;DHT22;5494;51.796;10.952;2023-04-25T01:49:05;7.10;99.90
10883;DHT22;5494;51.796;10.952;2023-04-25T01:51:54;7.10;99.90
10883;DHT22;5494;51.796;10.952;2023-04-25T01:54:43;7.10;99.90
10883;DHT22;5494;51.796;10.952;2023-04-25T01:57:34;7.10;99.90
10883;DHT22;5494;51.796;10.952;2023-04-25T02:00:23;7.10;99.90
10883;DHT22;5494;51.796;10.952;2023-04-25T02:03:11;7.10;99.90
10883;DHT22;5494;51.796;10.952;2023-04-25T02:06:00;7.00;99.90
10883;DHT22;5494;51.796;10.952;2023-04-25T02:08:50;6.90;99.90
10883;DHT22;5494;51.796;10.952;2023-04-25T02:11:39;6.90;99.90
10883;DHT22;5494;51.796;10.952;2023-04-25T02:14:47;6.80;99.90
10883;DHT22;5494;51.796;10.952;2023-04-25T02:17:44;6.80;99.90
10883;DHT22;5494;51.796;10.952;2023-04-25T02:20:33;6.70;99.90
10883;DHT22;5494;51.796;10.952;2023-04-25T02:23:21;6.80;99.90
10883;DHT22;5494;51.796;10.952;2023-04-25T02:26:09;6.80;99.90
10883;DHT22;5494;51.796;10.952;2023-04-25T02:29:01;6.90;99.90
10883;DHT22;5494;51.796;10.952;2023-04-25T02:31:50;6.90;99.90
10883;DHT22;5494;51.796;10.952;2023-04-25T02:34:39;6.90;99.90
10883;DHT22;5494;51.796;10.952;2023-04-25T02:37:27;6.90;99.90
10883;DHT22;5494;51.796;10.952;2023-04-25T02:40:15;6.90;99.90
10883;DHT22;5494;51.796;10.952;2023-04-25T02:43:03;6.90;99.90
10883;DHT22;5494;51.796;10.952;2023-04-25T02:45:52;6.80;99.90
10883;DHT22;5494;51.796;10.952;2023-04-25T02:48:41;6.90;99.90
10883;DHT22;5494;51.796;10.952;2023-04-25T02:51:30;6.80;99.90
10883;DHT22;5494;51.796;10.952;2023-04-25T02:54:19;6.80;99.90
10883;DHT22;5494;51.796;10.952;2023-04-25T02:57:08;6.80;99.90
10883;DHT22;5494;51.796;10.952;2023-04-25T02:59:57;6.80;99.90
10883;DHT22;5494;51.796;10.952;2023-04-25T03:02:46;6.80;99.90
10883;DHT22;5494;51.796;10.952;2023-04-25T03:05:36;6.80;99.90
10883;DHT22;5494;51.796;10.952;2023-04-25T03:08:24;6.80;99.90
10883;DHT22;5494;51.796;10.952;2023-04-25T03:11:16;6.80;99.90
10883;DHT22;5494;51.796;10.952;2023-04-25T03:14:04;6.80;99.90
10883;DHT22;5494;51.796;10.952;2023-04-25T03:16:53;6.70;99.90
10883;DHT22;5494;51.796;10.952;2023-04-25T03:19:42;6.70;99.90
10883;DHT22;5494;51.796;10.952;2023-04-25T03:22:31;6.70;99.90
10883;DHT22;5494;51.796;10.952;2023-04-25T03:25:20;6.70;99.90
10883;DHT22;5494;51.796;10.952;2023-04-25T03:28:08;6.80;99.90
10883;DHT22;5494;51.796;10.952;2023-04-25T03:30:57;6.80;99.90
10883;DHT22;5494;51.796;10.952;2023-04-25T03:33:45;6.90;99.90
10883;DHT22;5494;51.796;10.952;2023-04-25T03:36:33;6.90;99.90
10883;DHT22;5494;51.796;10.952;2023-04-25T03:39:23;6.90;99.90
10883;DHT22;5494;51.796;10.952;2023-04-25T03:42:12;6.90;99.90
10883;DHT22;5494;51.796;10.952;2023-04-25T03:45:04;7.00;99.90
10883;DHT22;5494;51.796;10.952;2023-04-25T03:47:54;7.00;99.90
10883;DHT22;5494;51.796;10.952;2023-04-25T03:50:42;7.00;99.90
10883;DHT22;5494;51.796;10.952;2023-04-25T03:53:30;7.10;99.90
10883;DHT22;5494;51.796;10.952;2023-04-25T03:56:55;7.10;99.90
10883;DHT22;5494;51.796;10.952;2023-04-25T03:59:47;7.20;99.90
10883;DHT22;5494;51.796;10.952;2023-04-25T04:02:35;7.30;99.90
10883;DHT22;5494;51.796;10.952;2023-04-25T04:05:25;7.30;99.90
10883;DHT22;5494;51.796;10.952;2023-04-25T04:08:15;7.30;99.90
10883;DHT22;5494;51.796;10.952;2023-04-25T04:11:04;7.40;99.90
10883;DHT22;5494;51.796;10.952;2023-04-25T04:13:54;7.40;99.90
10883;DHT22;5494;51.796;10.952;2023-04-25T04:16:42;7.40;99.90
10883;DHT22;5494;51.796;10.952;2023-04-25T04:19:30;7.40;99.90
10883;DHT22;5494;51.796;10.952;2023-04-25T04:22:26;7.40;99.90
10883;DHT22;5494;51.796;10.952;2023-04-25T04:25:18;7.50;99.90
10883;DHT22;5494;51.796;10.952;2023-04-25T04:28:32;7.50;99.90
10883;DHT22;5494;51.796;10.952;2023-04-25T04:31:27;7.60;99.90
10883;DHT22;5494;51.796;10.952;2023-04-25T04:34:17;7.60;99.90
10883;DHT22;5494;51.796;10.952;2023-04-25T04:37:05;7.60;99.90
10883;DHT22;5494;51.796;10.952;2023-04-25T04:39:55;7.60;99.90
10883;DHT22;5494;51.796;10.952;2023-04-25T04:42:59;7.60;99.90
10883;DHT22;5494;51.796;10.952;2023-04-25T04:46:08;7.60;99.90
10883;DHT22;5494;51.796;10.952;2023-04-25T04:49:33;7.70;99.90
10883;DHT22;5494;51.796;10.952;2023-04-25T04:52:39;7.70;99.90
10883;DHT22;5494;51.796;10.952;2023-04-25T04:55:53;7.80;99.90
10883;DHT22;5494;51.796;10.952;2023-04-25T04:58:59;7.80;99.90
10883;DHT22;5494;51.796;10.952;2023-04-25T05:02:08;7.80;99.90
10883;DHT22;5494;51.796;10.952;2023-04-25T05:05:09;7.80;99.90
10883;DHT22;5494;51.796;10.952;2023-04-25T05:08:18;8.00;99.90
10883;DHT22;5494;51.796;10.952;2023-04-25T05:11:24;7.90;99.90
10883;DHT22;5494;51.796;10.952;2023-04-25T05:14:31;7.80;99.90
10883;DHT22;5494;51.796;10.952;2023-04-25T05:17:32;7.70;99.90
10883;DHT22;5494;51.796;10.952;2023-04-25T05:20:45;7.60;99.90
10883;DHT22;5494;51.796;10.952;2023-04-25T05:23:53;7.50;99.90
10883;DHT22;5494;51.796;10.952;2023-04-25T05:27:00;7.40;99.90
10883;DHT22;5494;51.796;10.952;2023-04-25T05:30:09;7.20;99.90
10883;DHT22;5494;51.796;10.952;2023-04-25T05:33:23;7.00;99.90
10883;DHT22;5494;51.796;10.952;2023-04-25T05:36:13;6.90;99.90
10883;DHT22;5494;51.796;10.952;2023-04-25T05:39:01;6.90;99.90
10883;DHT22;5494;51.796;10.952;2023-04-25T05:42:11;6.80;99.90
10883;DHT22;5494;51.796;10.952;2023-04-25T05:45:20;6.80;99.90
10883;DHT22;5494;51.796;10.952;2023-04-25T05:48:27;6.60;99.90
10883;DHT22;5494;51.796;10.952;2023-04-25T05:50:59;6.40;99.90
10883;DHT22;5494;51.796;10.952;2023-04-25T05:53:47;6.40;99.90
10883;DHT22;5494;51.796;10.952;2023-04-25T05:56:16;6.30;99.90
10883;DHT22;5494;51.796;10.952;2023-04-25T05:58:46;6.40;99.90
10883;DHT22;5494;51.796;10.952;2023-04-25T06:01:15;6.50;99.90
10883;DHT22;5494;51.796;10.952;2023-04-25T06:03:44;6.50;99.90
10883;DHT22;5494;51.796;10.952;2023-04-25T06:06:12;6.60;99.90
10883;DHT22;5494;51.796;10.952;2023-04-25T06:08:40;6.70;99.90
10883;DHT22;5494;51.796;10.952;2023-04-25T06:11:11;6.90;99.90
10883;DHT22;5494;51.796;10.952;2023-04-25T06:13:40;7.30;99.90
10883;DHT22;5494;51.796;10.952;2023-04-25T06:16:08;7.90;99.90
10883;DHT22;5494;51.796;10.952;2023-04-25T06:18:36;8.40;99.90
10883;DHT22;5494;51.796;10.952;2023-04-25T06:21:05;8.50;99.90
10883;DHT22;5494;51.796;10.952;2023-04-25T06:23:33;8.60;99.90
10883;DHT22;5494;51.796;10.952;2023-04-25T06:26:03;8.80;99.90
10883;DHT22;5494;51.796;10.952;2023-04-25T06:28:35;8.80;99.90
10883;DHT22;5494;51.796;10.952;2023-04-25T06:31:03;8.90;99.90
10883;DHT22;5494;51.796;10.952;2023-04-25T06:33:31;8.90;99.90
10883;DHT22;5494;51.796;10.952;2023-04-25T06:36:00;8.90;99.90
10883;DHT22;5494;51.796;10.952;2023-04-25T06:38:28;8.90;99.90
10883;DHT22;5494;51.796;10.952;2023-04-25T06:40:56;8.90;99.90
10883;DHT22;5494;51.796;10.952;2023-04-25T06:43:28;8.80;99.90
10883;DHT22;5494;51.796;10.952;2023-04-25T06:46:10;8.80;99.90
10883;DHT22;5494;51.796;10.952;2023-04-25T06:48:43;8.90;99.90
10883;DHT22;5494;51.796;10.952;2023-04-25T06:51:11;8.90;99.90
10883;DHT22;5494;51.796;10.952;2023-04-25T06:53:43;9.00;99.90
10883;DHT22;5494;51.796;10.952;2023-04-25T06:56:22;9.10;99.90
10883;DHT22;5494;51.796;10.952;2023-04-25T06:59:00;9.30;99.90
10883;DHT22;5494;51.796;10.952;2023-04-25T07:01:32;9.80;99.90
10883;DHT22;5494;51.796;10.952;2023-04-25T07:04:03;10.40;99.90
10883;DHT22;5494;51.796;10.952;2023-04-25T07:06:35;10.80;99.90
10883;DHT22;5494;51.796;10.952;2023-04-25T07:09:04;11.10;99.90
10883;DHT22;5494;51.796;10.952;2023-04-25T07:11:32;11.60;99.90
10883;DHT22;5494;51.796;10.952;2023-04-25T07:14:01;12.30;99.90
10883;DHT22;5494;51.796;10.952;2023-04-25T07:16:29;12.90;99.90
10883;DHT22;5494;51.796;10.952;2023-04-25T07:18:59;13.10;99.90
10883;DHT22;5494;51.796;10.952;2023-04-25T07:21:28;13.20;99.90
10883;DHT22;5494;51.796;10.952;2023-04-25T07:24:00;13.10;99.90
10883;DHT22;5494;51.796;10.952;2023-04-25T07:26:33;12.90;99.90
10883;DHT22;5494;51.796;10.952;2023-04-25T07:29:19;13.40;99.90
10883;DHT22;5494;51.796;10.952;2023-04-25T07:31:48;13.40;99.90
10883;DHT22;5494;51.796;10.952;2023-04-25T07:34:17;13.00;99.90
10883;DHT22;5494;51.796;10.952;2023-04-25T07:36:45;12.90;99.90
10883;DHT22;5494;51.796;10.952;2023-04-25T07:39:13;12.80;99.90
10883;DHT22;5494;51.796;10.952;2023-04-25T07:41:41;12.70;99.90
10883;DHT22;5494;51.796;10.952;2023-04-25T07:44:14;12.70;99.90
10883;DHT22;5494;51.796;10.952;2023-04-25T07:46:43;12.80;99.90
10883;DHT22;5494;51.796;10.952;2023-04-25T07:49:11;13.40;99.90
10883;DHT22;5494;51.796;10.952;2023-04-25T07:51:44;13.90;99.90
10883;DHT22;5494;51.796;10.952;2023-04-25T07:54:15;13.70;99.90
10883;DHT22;5494;51.796;10.952;2023-04-25T07:56:48;13.50;99.90
10883;DHT22;5494;51.796;10.952;2023-04-25T07:59:22;13.10;99.90
10883;DHT22;5494;51.796;10.952;2023-04-25T08:01:51;12.80;99.90
10883;DHT22;5494;51.796;10.952;2023-04-25T08:04:19;12.50;99.90
10883;DHT22;5494;51.796;10.952;2023-04-25T08:07:00;12.40;99.90
10883;DHT22;5494;51.796;10.952;2023-04-25T08:09:32;12.50;99.90
10883;DHT22;5494;51.796;10.952;2023-04-25T08:12:04;12.20;99.90
10883;DHT22;5494;51.796;10.952;2023-04-25T08:14:33;11.80;99.90
10883;DHT22;5494;51.796;10.952;2023-04-25T08:17:04;11.70;99.90
10883;DHT22;5494;51.796;10.952;2023-04-25T08:19:38;11.60;99.90
10883;DHT22;5494;51.796;10.952;2023-04-25T08:22:13;11.60;99.90
10883;DHT22;5494;51.796;10.952;2023-04-25T08:24:49;11.80;99.90
10883;DHT22;5494;51.796;10.952;2023-04-25T08:27:18;12.00;99.90
10883;DHT22;5494;51.796;10.952;2023-04-25T08:29:47;12.30;99.90
10883;DHT22;5494;51.796;10.952;2023-04-25T08:32:16;12.70;99.90
10883;DHT22;5494;51.796;10.952;2023-04-25T08:34:58;12.80;99.90
10883;DHT22;5494;51.796;10.952;2023-04-25T08:37:28;13.30;99.90
10883;DHT22;5494;51.796;10.952;2023-04-25T08:40:00;13.50;99.90
10883;DHT22;5494;51.796;10.952;2023-04-25T08:42:50;13.40;99.90
10883;DHT22;5494;51.796;10.952;2023-04-25T08:45:20;12.90;99.90
10883;DHT22;5494;51.796;10.952;2023-04-25T08:47:51;12.40;99.90
10883;DHT22;5494;51.796;10.952;2023-04-25T08:50:22;12.20;99.90
10883;DHT22;5494;51.796;10.952;2023-04-25T08:52:54;12.10;99.90
10883;DHT22;5494;51.796;10.952;2023-04-25T08:55:28;12.20;99.90
10883;DHT22;5494;51.796;10.952;2023-04-25T08:57:59;12.00;99.90
10883;DHT22;5494;51.796;10.952;2023-04-25T09:00:28;12.00;99.90
10883;DHT22;5494;51.796;10.952;2023-04-25T09:02:57;12.00;99.90
10883;DHT22;5494;51.796;10.952;2023-04-25T09:05:30;12.00;99.90
10883;DHT22;5494;51.796;10.952;2023-04-25T09:08:01;12.00;99.90
10883;DHT22;5494;51.796;10.952;2023-04-25T09:10:29;12.00;99.90
10883;DHT22;5494;51.796;10.952;2023-04-25T09:13:04;11.90;99.90
10883;DHT22;5494;51.796;10.952;2023-04-25T09:15:49;11.50;99.90
10883;DHT22;5494;51.796;10.952;2023-04-25T09:18:33;11.30;99.90
10883;DHT22;5494;51.796;10.952;2023-04-25T09:21:05;11.30;99.90
10883;DHT22;5494;51.796;10.952;2023-04-25T09:23:44;11.30;99.90
10883;DHT22;5494;51.796;10.952;2023-04-25T09:26:18;11.20;99.90
10883;DHT22;5494;51.796;10.952;2023-04-25T09:28:48;11.30;99.90
10883;DHT22;5494;51.796;10.952;2023-04-25T09:31:23;11.30;99.90
10883;DHT22;5494;51.796;10.952;2023-04-25T09:33:59;11.50;99.90
10883;DHT22;5494;51.796;10.952;2023-04-25T09:36:37;11.60;99.90
10883;DHT22;5494;51.796;10.952;2023-04-25T09:39:30;12.20;99.90
10883;DHT22;5494;51.796;10.952;2023-04-25T09:42:09;13.30;99.90
10883;DHT22;5494;51.796;10.952;2023-04-25T09:44:42;14.30;98.60
10883;DHT22;5494;51.796;10.952;2023-04-25T09:47:13;14.40;96.30
10883;DHT22;5494;51.796;10.952;2023-04-25T09:49:44;14.10;97.10
10883;DHT22;5494;51.796;10.952;2023-04-25T09:52:18;13.50;99.10
10883;DHT22;5494;51.796;10.952;2023-04-25T09:55:06;12.80;99.90
10883;DHT22;5494;51.796;10.952;2023-04-25T09:57:35;11.90;99.90
10883;DHT22;5494;51.796;10.952;2023-04-25T10:00:07;11.40;99.90
10883;DHT22;5494;51.796;10.952;2023-04-25T10:02:43;11.00;99.90
10883;DHT22;5494;51.796;10.952;2023-04-25T10:05:37;10.80;99.90
10883;DHT22;5494;51.796;10.952;2023-04-25T10:08:07;10.70;99.90
10883;DHT22;5494;51.796;10.952;2023-04-25T10:10:37;10.80;99.90
10883;DHT22;5494;51.796;10.952;2023-04-25T10:13:07;10.90;99.90
10883;DHT22;5494;51.796;10.952;2023-04-25T10:15:36;11.10;99.90
10883;DHT22;5494;51.796;10.952;2023-04-25T10:18:06;11.30;99.90
10883;DHT22;5494;51.796;10.952;2023-04-25T10:20:35;11.50;99.90
10883;DHT22;5494;51.796;10.952;2023-04-25T10:23:10;11.50;99.90
10883;DHT22;5494;51.796;10.952;2023-04-25T10:25:42;11.20;99.90
10883;DHT22;5494;51.796;10.952;2023-04-25T10:28:11;11.00;99.90
10883;DHT22;5494;51.796;10.952;2023-04-25T10:30:57;10.90;99.90
10883;DHT22;5494;51.796;10.952;2023-04-25T10:33:36;10.80;99.90
10883;DHT22;5494;51.796;10.952;2023-04-25T10:36:12;10.70;99.90
10883;DHT22;5494;51.796;10.952;2023-04-25T10:38:42;10.60;99.90
10883;DHT22;5494;51.796;10.952;2023-04-25T10:41:14;10.70;99.90
10883;DHT22;5494;51.796;10.952;2023-04-25T10:43:43;10.60;99.90
10883;DHT22;5494;51.796;10.952;2023-04-25T10:46:16;10.60;99.90
10883;DHT22;5494;51.796;10.952;2023-04-25T10:48:47;10.50;99.90
10883;DHT22;5494;51.796;10.952;2023-04-25T10:51:19;10.60;99.90
10883;DHT22;5494;51.796;10.952;2023-04-25T10:54:00;10.80;97.10
10883;DHT22;5494;51.796;10.952;2023-04-25T10:56:35;10.90;97.20
10883;DHT22;5494;51.796;10.952;2023-04-25T10:59:07;11.10;96.70
10883;DHT22;5494;51.796;10.952;2023-04-25T11:01:38;11.00;96.50
10883;DHT22;5494;51.796;10.952;2023-04-25T11:04:19;11.00;96.70
10883;DHT22;5494;51.796;10.952;2023-04-25T11:07:04;11.10;97.10
10883;DHT22;5494;51.796;10.952;2023-04-25T11:09:40;11.30;96.00
10883;DHT22;5494;51.796;10.952;2023-04-25T11:12:10;11.50;95.90
10883;DHT22;5494;51.796;10.952;2023-04-25T11:14:39;11.60;96.10
10883;DHT22;5494;51.796;10.952;2023-04-25T11:17:07;11.90;95.80
10883;DHT22;5494;51.796;10.952;2023-04-25T11:19:37;12.00;95.50
10883;DHT22;5494;51.796;10.952;2023-04-25T11:22:05;12.00;95.40
10883;DHT22;5494;51.796;10.952;2023-04-25T11:24:35;12.00;94.80
10883;DHT22;5494;51.796;10.952;2023-04-25T11:27:04;11.70;94.90
10883;DHT22;5494;51.796;10.952;2023-04-25T11:29:35;11.30;95.30
10883;DHT22;5494;51.796;10.952;2023-04-25T11:32:03;11.20;96.60
10883;DHT22;5494;51.796;10.952;2023-04-25T11:34:32;11.20;97.40
10883;DHT22;5494;51.796;10.952;2023-04-25T11:37:02;11.10;97.20
10883;DHT22;5494;51.796;10.952;2023-04-25T11:39:31;11.00;99.40
10883;DHT22;5494;51.796;10.952;2023-04-25T11:41:59;11.00;97.60
10883;DHT22;5494;51.796;10.952;2023-04-25T11:44:28;10.90;96.70
10883;DHT22;5494;51.796;10.952;2023-04-25T11:46:58;10.90;95.70
10883;DHT22;5494;51.796;10.952;2023-04-25T11:49:30;11.00;95.80
10883;DHT22;5494;51.796;10.952;2023-04-25T11:51:58;11.30;95.30
10883;DHT22;5494;51.796;10.952;2023-04-25T11:54:26;11.60;95.70
10883;DHT22;5494;51.796;10.952;2023-04-25T11:56:54;11.70;95.80
10883;DHT22;5494;51.796;10.952;2023-04-25T11:59:24;11.80;94.60
10883;DHT22;5494;51.796;10.952;2023-04-25T12:01:53;11.70;94.20
10883;DHT22;5494;51.796;10.952;2023-04-25T12:04:24;11.70;94.30
10883;DHT22;5494;51.796;10.952;2023-04-25T12:06:54;11.70;93.90
10883;DHT22;5494;51.796;10.952;2023-04-25T12:09:28;11.60;93.50
10883;DHT22;5494;51.796;10.952;2023-04-25T12:11:59;11.70;93.70
10883;DHT22;5494;51.796;10.952;2023-04-25T12:14:31;11.80;92.60
10883;DHT22;5494;51.796;10.952;2023-04-25T12:17:01;11.80;90.70
10883;DHT22;5494;51.796;10.952;2023-04-25T12:19:36;11.80;90.90
10883;DHT22;5494;51.796;10.952;2023-04-25T12:22:19;11.80;91.70
10883;DHT22;5494;51.796;10.952;2023-04-25T12:24:48;11.90;92.10
10883;DHT22;5494;51.796;10.952;2023-04-25T12:27:17;11.90;90.50
10883;DHT22;5494;51.796;10.952;2023-04-25T12:29:51;11.80;90.60
10883;DHT22;5494;51.796;10.952;2023-04-25T12:32:20;11.70;91.20
10883;DHT22;5494;51.796;10.952;2023-04-25T12:34:50;11.80;91.50
10883;DHT22;5494;51.796;10.952;2023-04-25T12:37:17;11.90;90.10
10883;DHT22;5494;51.796;10.952;2023-04-25T12:39:45;12.00;90.10
10883;DHT22;5494;51.796;10.952;2023-04-25T12:42:13;12.10;89.50
10883;DHT22;5494;51.796;10.952;2023-04-25T12:44:41;12.20;89.10
10883;DHT22;5494;51.796;10.952;2023-04-25T12:47:09;12.30;87.70
10883;DHT22;5494;51.796;10.952;2023-04-25T12:49:37;12.10;89.50
10883;DHT22;5494;51.796;10.952;2023-04-25T12:52:07;12.00;90.30
10883;DHT22;5494;51.796;10.952;2023-04-25T12:54:35;12.00;90.70
10883;DHT22;5494;51.796;10.952;2023-04-25T12:57:03;12.00;91.50
10883;DHT22;5494;51.796;10.952;2023-04-25T12:59:31;11.90;91.80
10883;DHT22;5494;51.796;10.952;2023-04-25T13:01:59;12.00;90.80
10883;DHT22;5494;51.796;10.952;2023-04-25T13:04:27;12.10;90.80
10883;DHT22;5494;51.796;10.952;2023-04-25T13:06:55;12.00;91.30
10883;DHT22;5494;51.796;10.952;2023-04-25T13:09:25;12.10;92.10
10883;DHT22;5494;51.796;10.952;2023-04-25T13:11:53;12.10;92.40
10883;DHT22;5494;51.796;10.952;2023-04-25T13:14:24;12.00;93.50
10883;DHT22;5494;51.796;10.952;2023-04-25T13:16:52;11.80;94.20
10883;DHT22;5494;51.796;10.952;2023-04-25T13:19:21;11.50;94.80
10883;DHT22;5494;51.796;10.952;2023-04-25T13:21:49;11.20;95.10
10883;DHT22;5494;51.796;10.952;2023-04-25T13:24:17;11.00;96.90
10883;DHT22;5494;51.796;10.952;2023-04-25T13:26:46;10.90;98.00
10883;DHT22;5494;51.796;10.952;2023-04-25T13:29:14;10.90;99.20
10883;DHT22;5494;51.796;10.952;2023-04-25T13:31:42;10.90;99.90
10883;DHT22;5494;51.796;10.952;2023-04-25T13:34:10;10.90;99.90
10883;DHT22;5494;51.796;10.952;2023-04-25T13:36:39;10.80;99.90
10883;DHT22;5494;51.796;10.952;2023-04-25T13:39:07;10.70;99.90
10883;DHT22;5494;51.796;10.952;2023-04-25T13:41:35;10.60;99.90
10883;DHT22;5494;51.796;10.952;2023-04-25T13:44:05;10.60;99.90
10883;DHT22;5494;51.796;10.952;2023-04-25T13:46:33;10.60;99.90
10883;DHT22;5494;51.796;10.952;2023-04-25T13:49:13;10.70;99.90
10883;DHT22;5494;51.796;10.952;2023-04-25T13:51:41;10.90;99.90
10883;DHT22;5494;51.796;10.952;2023-04-25T13:54:09;11.20;99.90
10883;DHT22;5494;51.796;10.952;2023-04-25T13:56:37;11.20;99.90
10883;DHT22;5494;51.796;10.952;2023-04-25T13:59:10;11.20;99.90
10883;DHT22;5494;51.796;10.952;2023-04-25T14:01:38;11.10;99.90
10883;DHT22;5494;51.796;10.952;2023-04-25T14:04:06;11.10;99.90
10883;DHT22;5494;51.796;10.952;2023-04-25T14:06:34;11.00;99.90
10883;DHT22;5494;51.796;10.952;2023-04-25T14:09:03;10.90;99.90
10883;DHT22;5494;51.796;10.952;2023-04-25T14:11:33;10.80;99.90
10883;DHT22;5494;51.796;10.952;2023-04-25T14:14:01;10.60;99.90
10883;DHT22;5494;51.796;10.952;2023-04-25T14:16:30;10.50;99.90
10883;DHT22;5494;51.796;10.952;2023-04-25T14:18:58;10.40;99.90
10883;DHT22;5494;51.796;10.952;2023-04-25T14:21:27;10.30;99.90
10883;DHT22;5494;51.796;10.952;2023-04-25T14:23:55;10.20;99.90
10883;DHT22;5494;51.796;10.952;2023-04-25T14:26:22;10.30;99.90
10883;DHT22;5494;51.796;10.952;2023-04-25T14:28:51;10.40;99.90
10883;DHT22;5494;51.796;10.952;2023-04-25T14:31:19;10.60;99.90
10883;DHT22;5494;51.796;10.952;2023-04-25T14:33:48;10.90;99.90
10883;DHT22;5494;51.796;10.952;2023-04-25T14:36:18;11.10;99.90
10883;DHT22;5494;51.796;10.952;2023-04-25T14:38:46;11.10;99.90
10883;DHT22;5494;51.796;10.952;2023-04-25T14:41:14;11.10;99.90
10883;DHT22;5494;51.796;10.952;2023-04-25T14:43:42;11.00;99.90
10883;DHT22;5494;51.796;10.952;2023-04-25T14:46:11;10.90;99.90
10883;DHT22;5494;51.796;10.952;2023-04-25T14:48:39;10.70;99.90
10883;DHT22;5494;51.796;10.952;2023-04-25T14:51:09;10.60;99.90
10883;DHT22;5494;51.796;10.952;2023-04-25T14:53:37;10.40;99.90
10883;DHT22;5494;51.796;10.952;2023-04-25T14:56:06;10.40;99.90
10883;DHT22;5494;51.796;10.952;2023-04-25T14:58:34;10.50;99.90
10883;DHT22;5494;51.796;10.952;2023-04-25T15:01:02;10.60;99.90
10883;DHT22;5494;51.796;10.952;2023-04-25T15:03:30;10.70;99.90
10883;DHT22;5494;51.796;10.952;2023-04-25T15:06:00;10.70;99.90
10883;DHT22;5494;51.796;10.952;2023-04-25T15:08:29;10.70;99.90
10883;DHT22;5494;51.796;10.952;2023-04-25T15:10:57;10.70;99.90
10883;DHT22;5494;51.796;10.952;2023-04-25T15:13:26;10.70;99.90
10883;DHT22;5494;51.796;10.952;2023-04-25T15:15:55;10.70;99.90
10883;DHT22;5494;51.796;10.952;2023-04-25T15:18:23;10.60;99.90
10883;DHT22;5494;51.796;10.952;2023-04-25T15:20:51;10.50;99.90
10883;DHT22;5494;51.796;10.952;2023-04-25T15:23:21;10.50;99.90
10883;DHT22;5494;51.796;10.952;2023-04-25T15:25:51;10.40;99.90
10883;DHT22;5494;51.796;10.952;2023-04-25T15:28:19;10.40;99.90
10883;DHT22;5494;51.796;10.952;2023-04-25T15:30:48;10.30;99.90
10883;DHT22;5494;51.796;10.952;2023-04-25T15:33:17;10.30;99.90
10883;DHT22;5494;51.796;10.952;2023-04-25T15:35:45;10.30;99.90
10883;DHT22;5494;51.796;10.952;2023-04-25T15:38:13;10.30;99.90
10883;DHT22;5494;51.796;10.952;2023-04-25T15:40:41;10.10;99.90
10883;DHT22;5494;51.796;10.952;2023-04-25T15:43:10;10.10;99.90
10883;DHT22;5494;51.796;10.952;2023-04-25T15:45:42;10.00;99.90
10883;DHT22;5494;51.796;10.952;2023-04-25T15:48:11;10.00;99.90
10883;DHT22;5494;51.796;10.952;2023-04-25T15:50:40;10.10;99.90
10883;DHT22;5494;51.796;10.952;2023-04-25T15:53:09;10.30;99.90
10883;DHT22;5494;51.796;10.952;2023-04-25T15:55:37;10.40;99.90
10883;DHT22;5494;51.796;10.952;2023-04-25T15:58:05;10.40;99.90
10883;DHT22;5494;51.796;10.952;2023-04-25T16:00:35;10.30;99.90
10883;DHT22;5494;51.796;10.952;2023-04-25T16:03:05;10.20;99.90
10883;DHT22;5494;51.796;10.952;2023-04-25T16:05:35;9.90;99.90
10883;DHT22;5494;51.796;10.952;2023-04-25T16:08:03;9.90;99.90
10883;DHT22;5494;51.796;10.952;2023-04-25T16:10:31;9.80;99.90
10883;DHT22;5494;51.796;10.952;2023-04-25T16:12:59;9.90;99.90
10883;DHT22;5494;51.796;10.952;2023-04-25T16:15:27;9.90;99.90
10883;DHT22;5494;51.796;10.952;2023-04-25T16:17:59;9.90;99.90
10883;DHT22;5494;51.796;10.952;2023-04-25T16:20:27;10.00;99.90
10883;DHT22;5494;51.796;10.952;2023-04-25T16:22:55;10.00;99.90
10883;DHT22;5494;51.796;10.952;2023-04-25T16:25:23;10.00;99.90
10883;DHT22;5494;51.796;10.952;2023-04-25T16:27:52;10.00;99.90
10883;DHT22;5494;51.796;10.952;2023-04-25T16:30:20;9.90;99.90
10883;DHT22;5494;51.796;10.952;2023-04-25T16:32:48;9.70;99.90
10883;DHT22;5494;51.796;10.952;2023-04-25T16:35:17;9.50;99.90
10883;DHT22;5494;51.796;10.952;2023-04-25T16:37:46;9.30;99.90
10883;DHT22;5494;51.796;10.952;2023-04-25T16:40:13;9.10;99.90
10883;DHT22;5494;51.796;10.952;2023-04-25T16:42:41;9.10;99.90
10883;DHT22;5494;51.796;10.952;2023-04-25T16:45:11;8.90;99.90
10883;DHT22;5494;51.796;10.952;2023-04-25T16:47:39;8.80;99.90
10883;DHT22;5494;51.796;10.952;2023-04-25T16:50:08;8.70;99.90
10883;DHT22;5494;51.796;10.952;2023-04-25T16:52:37;8.60;99.90
10883;DHT22;5494;51.796;10.952;2023-04-25T16:55:07;8.40;99.90
10883;DHT22;5494;51.796;10.952;2023-04-25T16:57:35;8.30;99.90
10883;DHT22;5494;51.796;10.952;2023-04-25T17:00:05;8.20;99.90